Terminal Aerodrome Forecast
Issued by NWS Wichita, KS

Home | Current Version | Previous Version | Text Only | Print | Product List | Glossary Off
Versions: 1 2 3 4 5 6 7 8 9 10 11 12 13

603
FTUS43 KICT 200520
TAFICT
TAF
KICT 200520Z 2006/2106 17022G26KT P6SM BKN300 WS020/19052KT
     FM201100 19013KT P6SM BKN300 WS020/20045KT
     FM201500 24007KT P6SM SCT030=

USA.gov is the U.S. government's official web portal to all federal, state and local government web resources and services.